Time,TemperatureF,DewpointF,PressureIn,WindDirection,WindDirectionDegrees,WindSpeedMPH,WindSpeedGustMPH,Humidity,HourlyPrecipIn,Conditions,Clouds,dailyrainin,SolarRadiationWatts/m^2,SoftwareType,DateUTC
2013-08-18 00:03:00,-999.0,-99.9,-100.00,North,0,6.0,11.0,-999,0.00,,,0.00,0.000000,,2013-08-18 04:03:00,
2013-08-18 00:42:00,61.0,54.0,-100.00,North,0,7.0,12.0,78,0.00,,,0.00,0.000000,,2013-08-18 04:42:00,
2013-08-18 00:53:00,61.0,54.0,-100.00,North,0,7.0,12.0,78,0.00,,,0.00,0.000000,,2013-08-18 04:53:00,
2013-08-18 01:02:00,61.0,54.0,-100.00,North,0,7.0,12.0,78,0.00,,,0.00,0.000000,,2013-08-18 05:02:00,
2013-08-18 01:43:00,60.0,53.0,-100.00,North,0,6.0,12.0,79,0.00,,,0.00,0.000000,,2013-08-18 05:43:00,
2013-08-18 01:52:00,60.0,53.0,-100.00,North,0,6.0,12.0,79,0.00,,,0.00,0.000000,,2013-08-18 05:52:00,
2013-08-18 02:01:00,60.0,53.0,-100.00,North,0,6.0,12.0,79,0.00,,,0.00,0.000000,,2013-08-18 06:01:00,
2013-08-18 02:42:00,60.0,54.0,-100.00,North,0,7.0,14.0,80,0.00,,,0.00,0.000000,,2013-08-18 06:42:00,
2013-08-18 02:52:00,60.0,54.0,-100.00,North,0,7.0,14.0,80,0.00,,,0.00,0.000000,,2013-08-18 06:52:00,
2013-08-18 03:01:00,60.0,54.0,-100.00,North,0,7.0,14.0,80,0.00,,,0.00,0.000000,,2013-08-18 07:01:00,
2013-08-18 03:42:00,60.0,55.0,-100.00,North,0,6.0,13.0,83,0.00,,,0.00,0.000000,,2013-08-18 07:42:00,
2013-08-18 03:52:00,60.0,55.0,-100.00,North,0,6.0,13.0,83,0.00,,,0.00,0.000000,,2013-08-18 07:52:00,
2013-08-18 04:01:00,60.0,55.0,-100.00,North,0,6.0,13.0,83,0.00,,,0.00,0.000000,,2013-08-18 08:01:00,
2013-08-18 04:42:00,60.0,55.0,-100.00,North,0,8.0,14.0,84,0.00,,,0.00,0.000000,,2013-08-18 08:42:00,
2013-08-18 04:52:00,60.0,55.0,-100.00,North,0,8.0,14.0,84,0.00,,,0.00,0.000000,,2013-08-18 08:52:00,
2013-08-18 05:01:00,60.0,55.0,-100.00,North,0,8.0,14.0,84,0.00,,,0.00,0.000000,,2013-08-18 09:01:00,
2013-08-18 05:43:00,58.0,54.0,-100.00,North,0,7.0,13.0,86,0.00,,,0.00,0.000000,,2013-08-18 09:43:00,
2013-08-18 05:53:00,58.0,54.0,-100.00,North,0,7.0,13.0,86,0.00,,,0.00,0.000000,,2013-08-18 09:53:00,
2013-08-18 06:03:00,58.0,54.0,-100.00,North,0,7.0,13.0,86,0.00,,,0.00,0.000000,,2013-08-18 10:03:00,
2013-08-18 06:43:00,58.0,51.0,-100.00,North,0,7.0,15.0,78,0.00,,,0.00,0.000000,,2013-08-18 10:43:00,
2013-08-18 06:52:00,58.0,51.0,-100.00,North,0,7.0,15.0,78,0.00,,,0.00,0.000000,,2013-08-18 10:52:00,
2013-08-18 07:02:00,58.0,51.0,-100.00,North,0,7.0,15.0,78,0.00,,,0.00,0.000000,,2013-08-18 11:02:00,
2013-08-18 07:42:00,56.0,56.0,-100.00,North,0,5.0,14.0,100,0.01,,,0.01,3.000000,,2013-08-18 11:42:00,
2013-08-18 07:52:00,56.0,56.0,-100.00,North,0,5.0,14.0,100,0.01,,,0.01,3.000000,,2013-08-18 11:52:00,
2013-08-18 08:01:00,56.0,56.0,-100.00,North,0,5.0,14.0,100,0.01,,,0.01,3.000000,,2013-08-18 12:01:00,
2013-08-18 08:42:00,55.0,55.0,-100.00,North,0,6.0,13.0,99,0.00,,,0.01,22.000000,,2013-08-18 12:42:00,
2013-08-18 08:52:00,55.0,55.0,-100.00,North,0,6.0,13.0,99,0.00,,,0.01,22.000000,,2013-08-18 12:52:00,
2013-08-18 09:01:00,55.0,55.0,-100.00,North,0,6.0,13.0,99,0.00,,,0.01,22.000000,,2013-08-18 13:01:00,
2013-08-18 09:42:00,55.0,55.0,-100.00,North,0,5.0,10.0,100,0.00,,,0.01,55.000000,,2013-08-18 13:42:00,
2013-08-18 09:52:00,55.0,55.0,-100.00,North,0,5.0,10.0,100,0.00,,,0.01,55.000000,,2013-08-18 13:52:00,
2013-08-18 10:02:00,55.0,55.0,-100.00,North,0,5.0,10.0,100,0.00,,,0.01,55.000000,,2013-08-18 14:02:00,
2013-08-18 10:42:00,57.0,57.0,-100.00,North,0,5.0,10.0,100,0.00,,,0.01,124.000000,,2013-08-18 14:42:00,
2013-08-18 10:53:00,57.0,57.0,-100.00,North,0,5.0,10.0,100,0.00,,,0.01,124.000000,,2013-08-18 14:53:00,
2013-08-18 11:01:00,57.0,57.0,-100.00,North,0,5.0,10.0,100,0.00,,,0.01,124.000000,,2013-08-18 15:01:00,
2013-08-18 11:43:00,59.0,56.0,-100.00,North,0,5.0,15.0,91,0.00,,,0.01,268.000000,,2013-08-18 15:43:00,
2013-08-18 11:54:00,59.0,56.0,-100.00,North,0,5.0,15.0,91,0.00,,,0.01,268.000000,,2013-08-18 15:54:00,
2013-08-18 12:03:00,59.0,56.0,-100.00,North,0,5.0,15.0,91,0.00,,,0.01,268.000000,,2013-08-18 16:03:00,
2013-08-18 12:42:00,62.0,57.0,-100.00,North,0,5.0,12.0,84,0.00,,,0.01,478.000000,,2013-08-18 16:42:00,
2013-08-18 12:52:00,62.0,57.0,-100.00,North,0,5.0,12.0,84,0.00,,,0.01,478.000000,,2013-08-18 16:52:00,
2013-08-18 13:02:00,62.0,57.0,-100.00,North,0,5.0,12.0,84,0.00,,,0.01,478.000000,,2013-08-18 17:02:00,
2013-08-18 13:43:00,63.0,56.0,-100.00,North,0,7.0,15.0,78,0.00,,,0.01,498.000000,,2013-08-18 17:43:00,
2013-08-18 13:52:00,63.0,56.0,-100.00,North,0,7.0,15.0,78,0.00,,,0.01,498.000000,,2013-08-18 17:52:00,
2013-08-18 14:02:00,63.0,56.0,-100.00,North,0,7.0,15.0,78,0.00,,,0.01,498.000000,,2013-08-18 18:02:00,
2013-08-18 14:43:00,63.0,55.0,-100.00,North,0,5.0,14.0,76,0.00,,,0.01,476.000000,,2013-08-18 18:43:00,
2013-08-18 14:52:00,63.0,55.0,-100.00,North,0,5.0,14.0,76,0.00,,,0.01,476.000000,,2013-08-18 18:52:00,
2013-08-18 15:01:00,63.0,55.0,-100.00,North,0,5.0,14.0,76,0.00,,,0.01,476.000000,,2013-08-18 19:01:00,
2013-08-18 15:42:00,67.0,59.0,-100.00,North,0,5.0,11.0,76,0.00,,,0.01,464.000000,,2013-08-18 19:42:00,
2013-08-18 15:52:00,67.0,59.0,-100.00,North,0,5.0,11.0,76,0.00,,,0.01,464.000000,,2013-08-18 19:52:00,
2013-08-18 16:02:00,67.0,59.0,-100.00,North,0,5.0,11.0,76,0.00,,,0.01,464.000000,,2013-08-18 20:02:00,
2013-08-18 16:42:00,66.0,59.0,-100.00,North,0,5.0,13.0,79,0.00,,,0.01,406.000000,,2013-08-18 20:42:00,
2013-08-18 16:52:00,66.0,59.0,-100.00,North,0,5.0,13.0,79,0.00,,,0.01,406.000000,,2013-08-18 20:52:00,
2013-08-18 17:01:00,66.0,59.0,-100.00,North,0,5.0,13.0,79,0.00,,,0.01,406.000000,,2013-08-18 21:01:00,
2013-08-18 17:42:00,67.0,61.0,-100.00,North,0,4.0,9.0,81,0.00,,,0.01,345.000000,,2013-08-18 21:42:00,
2013-08-18 17:53:00,67.0,61.0,-100.00,North,0,4.0,9.0,81,0.00,,,0.01,345.000000,,2013-08-18 21:53:00,
2013-08-18 18:04:00,67.0,61.0,-100.00,North,0,4.0,9.0,81,0.00,,,0.01,345.000000,,2013-08-18 22:04:00,
2013-08-18 18:42:00,65.0,60.0,-100.00,North,0,3.0,7.0,84,0.00,,,0.01,224.000000,,2013-08-18 22:42:00,
2013-08-18 18:52:00,65.0,60.0,-100.00,North,0,3.0,7.0,84,0.00,,,0.01,224.000000,,2013-08-18 22:52:00,
2013-08-18 19:02:00,65.0,60.0,-100.00,North,0,3.0,7.0,84,0.00,,,0.01,224.000000,,2013-08-18 23:02:00,
2013-08-18 19:42:00,63.0,60.0,-100.00,North,0,3.0,6.0,91,0.00,,,0.01,76.000000,,2013-08-18 23:42:00,
2013-08-18 19:52:00,63.0,60.0,-100.00,North,0,3.0,6.0,91,0.00,,,0.01,76.000000,,2013-08-18 23:52:00,
2013-08-18 20:03:00,63.0,60.0,-100.00,North,0,3.0,6.0,91,0.00,,,0.01,76.000000,,2013-08-19 00:03:00,
2013-08-18 20:42:00,61.0,60.0,-100.00,North,0,3.0,6.0,98,0.00,,,0.01,14.000000,,2013-08-19 00:42:00,
2013-08-18 20:52:00,61.0,60.0,-100.00,North,0,3.0,6.0,98,0.00,,,0.01,14.000000,,2013-08-19 00:52:00,
2013-08-18 21:02:00,61.0,60.0,-100.00,North,0,3.0,6.0,98,0.00,,,0.01,14.000000,,2013-08-19 01:02:00,
2013-08-18 21:42:00,59.0,59.0,-100.00,North,0,2.0,6.0,100,0.00,,,0.01,1.000000,,2013-08-19 01:42:00,
2013-08-18 21:52:00,59.0,59.0,-100.00,North,0,2.0,6.0,100,0.00,,,0.01,1.000000,,2013-08-19 01:52:00,
2013-08-18 22:06:00,59.0,59.0,-100.00,North,0,2.0,6.0,100,0.00,,,0.01,1.000000,,2013-08-19 02:06:00,
2013-08-18 22:42:00,59.0,59.0,-100.00,North,0,1.0,5.0,100,0.00,,,0.01,0.000000,,2013-08-19 02:42:00,
2013-08-18 22:52:00,59.0,59.0,-100.00,North,0,1.0,5.0,100,0.00,,,0.01,0.000000,,2013-08-19 02:52:00,
2013-08-18 23:01:00,59.0,59.0,-100.00,North,0,1.0,5.0,100,0.00,,,0.01,0.000000,,2013-08-19 03:01:00,
2013-08-18 23:42:00,58.0,58.0,-100.00,North,0,2.0,5.0,100,0.00,,,0.01,0.000000,,2013-08-19 03:42:00,
2013-08-18 23:53:00,58.0,58.0,-100.00,North,0,2.0,5.0,100,0.00,,,0.01,0.000000,,2013-08-19 03:53:00,